sensor_id;sensor_type;location;lat;lon;timestamp;P1;durP1;ratioP1;P2;durP2;ratioP2
39370;SDS011;25099;51.946;4.838;2023-02-22T00:01:42;57.95;;;27.65;;
39370;SDS011;25099;51.946;4.838;2023-02-22T00:07:50;54.00;;;26.70;;
39370;SDS011;25099;51.946;4.838;2023-02-22T00:10:16;56.53;;;28.25;;
39370;SDS011;25099;51.946;4.838;2023-02-22T00:12:45;50.58;;;26.75;;
39370;SDS011;25099;51.946;4.838;2023-02-22T00:15:16;49.50;;;26.92;;
39370;SDS011;25099;51.946;4.838;2023-02-22T00:17:46;52.13;;;27.88;;
39370;SDS011;25099;51.946;4.838;2023-02-22T00:20:18;53.78;;;29.38;;
39370;SDS011;25099;51.946;4.838;2023-02-22T00:22:49;56.55;;;29.08;;
39370;SDS011;25099;51.946;4.838;2023-02-22T00:25:20;52.47;;;27.23;;
39370;SDS011;25099;51.946;4.838;2023-02-22T00:27:50;50.90;;;27.33;;
39370;SDS011;25099;51.946;4.838;2023-02-22T00:30:29;54.80;;;29.00;;
39370;SDS011;25099;51.946;4.838;2023-02-22T00:32:56;51.25;;;27.98;;
39370;SDS011;25099;51.946;4.838;2023-02-22T00:35:26;54.53;;;28.83;;
39370;SDS011;25099;51.946;4.838;2023-02-22T00:37:59;55.58;;;28.42;;
39370;SDS011;25099;51.946;4.838;2023-02-22T00:40:27;55.05;;;28.77;;
39370;SDS011;25099;51.946;4.838;2023-02-22T00:42:58;51.28;;;28.27;;
39370;SDS011;25099;51.946;4.838;2023-02-22T00:45:31;53.08;;;27.58;;
39370;SDS011;25099;51.946;4.838;2023-02-22T00:48:04;48.00;;;27.88;;
39370;SDS011;25099;51.946;4.838;2023-02-22T00:50:34;49.38;;;28.02;;
39370;SDS011;25099;51.946;4.838;2023-02-22T00:53:09;51.40;;;27.88;;
39370;SDS011;25099;51.946;4.838;2023-02-22T00:55:44;52.85;;;28.08;;
39370;SDS011;25099;51.946;4.838;2023-02-22T00:58:19;52.65;;;26.63;;
39370;SDS011;25099;51.946;4.838;2023-02-22T01:00:50;49.33;;;26.50;;
39370;SDS011;25099;51.946;4.838;2023-02-22T01:03:17;50.50;;;27.58;;
39370;SDS011;25099;51.946;4.838;2023-02-22T01:05:44;53.58;;;28.92;;
39370;SDS011;25099;51.946;4.838;2023-02-22T01:08:14;49.38;;;26.80;;
39370;SDS011;25099;51.946;4.838;2023-02-22T01:10:43;49.13;;;27.05;;
39370;SDS011;25099;51.946;4.838;2023-02-22T01:13:16;51.43;;;28.73;;
39370;SDS011;25099;51.946;4.838;2023-02-22T01:15:46;52.20;;;29.15;;
39370;SDS011;25099;51.946;4.838;2023-02-22T01:18:15;49.90;;;28.08;;
39370;SDS011;25099;51.946;4.838;2023-02-22T01:20:47;49.60;;;27.13;;
39370;SDS011;25099;51.946;4.838;2023-02-22T01:23:18;51.97;;;27.48;;
39370;SDS011;25099;51.946;4.838;2023-02-22T01:25:47;48.05;;;26.85;;
39370;SDS011;25099;51.946;4.838;2023-02-22T01:28:18;52.55;;;29.48;;
39370;SDS011;25099;51.946;4.838;2023-02-22T01:30:55;49.83;;;26.83;;
39370;SDS011;25099;51.946;4.838;2023-02-22T01:33:23;55.78;;;28.25;;
39370;SDS011;25099;51.946;4.838;2023-02-22T01:35:49;52.70;;;28.13;;
39370;SDS011;25099;51.946;4.838;2023-02-22T01:38:15;50.75;;;27.27;;
39370;SDS011;25099;51.946;4.838;2023-02-22T01:40:49;53.78;;;29.05;;
39370;SDS011;25099;51.946;4.838;2023-02-22T01:46:02;56.90;;;29.50;;
39370;SDS011;25099;51.946;4.838;2023-02-22T01:48:53;57.00;;;29.42;;
39370;SDS011;25099;51.946;4.838;2023-02-22T01:51:24;55.10;;;28.75;;
39370;SDS011;25099;51.946;4.838;2023-02-22T01:53:54;57.42;;;26.95;;
39370;SDS011;25099;51.946;4.838;2023-02-22T01:56:25;58.85;;;28.77;;
39370;SDS011;25099;51.946;4.838;2023-02-22T01:58:53;61.13;;;29.30;;
39370;SDS011;25099;51.946;4.838;2023-02-22T02:01:25;52.05;;;27.92;;
39370;SDS011;25099;51.946;4.838;2023-02-22T02:03:51;55.58;;;28.40;;
39370;SDS011;25099;51.946;4.838;2023-02-22T02:06:22;61.42;;;30.08;;
39370;SDS011;25099;51.946;4.838;2023-02-22T02:09:01;61.53;;;30.33;;
39370;SDS011;25099;51.946;4.838;2023-02-22T02:11:53;59.65;;;29.20;;
39370;SDS011;25099;51.946;4.838;2023-02-22T02:14:25;64.95;;;30.15;;
39370;SDS011;25099;51.946;4.838;2023-02-22T02:16:54;62.45;;;29.70;;
39370;SDS011;25099;51.946;4.838;2023-02-22T02:25:38;61.58;;;28.85;;
39370;SDS011;25099;51.946;4.838;2023-02-22T02:37:09;65.20;;;29.92;;
39370;SDS011;25099;51.946;4.838;2023-02-22T02:40:19;63.10;;;29.50;;
39370;SDS011;25099;51.946;4.838;2023-02-22T02:43:38;59.85;;;30.67;;
39370;SDS011;25099;51.946;4.838;2023-02-22T02:46:13;64.97;;;29.73;;
39370;SDS011;25099;51.946;4.838;2023-02-22T02:49:10;65.30;;;30.73;;
39370;SDS011;25099;51.946;4.838;2023-02-22T02:51:41;66.80;;;30.05;;
39370;SDS011;25099;51.946;4.838;2023-02-22T02:54:10;61.95;;;29.40;;
39370;SDS011;25099;51.946;4.838;2023-02-22T02:56:41;71.47;;;31.55;;
39370;SDS011;25099;51.946;4.838;2023-02-22T03:08:11;75.65;;;32.47;;
39370;SDS011;25099;51.946;4.838;2023-02-22T03:11:05;76.38;;;33.85;;
39370;SDS011;25099;51.946;4.838;2023-02-22T03:16:47;78.80;;;34.30;;
39370;SDS011;25099;51.946;4.838;2023-02-22T03:20:11;79.93;;;34.13;;
39370;SDS011;25099;51.946;4.838;2023-02-22T03:25:44;82.70;;;34.65;;
39370;SDS011;25099;51.946;4.838;2023-02-22T03:28:16;84.72;;;36.55;;
39370;SDS011;25099;51.946;4.838;2023-02-22T03:30:49;87.75;;;36.95;;
39370;SDS011;25099;51.946;4.838;2023-02-22T03:33:22;93.15;;;37.85;;
39370;SDS011;25099;51.946;4.838;2023-02-22T03:36:21;83.05;;;37.17;;
39370;SDS011;25099;51.946;4.838;2023-02-22T03:38:51;90.75;;;36.88;;
39370;SDS011;25099;51.946;4.838;2023-02-22T03:41:20;89.45;;;37.70;;
39370;SDS011;25099;51.946;4.838;2023-02-22T03:46:24;96.43;;;36.85;;
39370;SDS011;25099;51.946;4.838;2023-02-22T03:51:36;91.88;;;33.88;;
39370;SDS011;25099;51.946;4.838;2023-02-22T03:54:09;85.55;;;36.28;;
39370;SDS011;25099;51.946;4.838;2023-02-22T03:56:44;88.38;;;36.53;;
39370;SDS011;25099;51.946;4.838;2023-02-22T03:59:41;80.80;;;34.50;;
39370;SDS011;25099;51.946;4.838;2023-02-22T04:02:22;79.43;;;35.03;;
39370;SDS011;25099;51.946;4.838;2023-02-22T04:04:53;83.97;;;33.15;;
39370;SDS011;25099;51.946;4.838;2023-02-22T04:07:21;79.53;;;33.22;;
39370;SDS011;25099;51.946;4.838;2023-02-22T04:09:47;83.20;;;34.75;;
39370;SDS011;25099;51.946;4.838;2023-02-22T04:12:19;78.85;;;34.03;;
39370;SDS011;25099;51.946;4.838;2023-02-22T04:14:54;78.45;;;33.60;;
39370;SDS011;25099;51.946;4.838;2023-02-22T04:17:19;81.55;;;33.28;;
39370;SDS011;25099;51.946;4.838;2023-02-22T04:19:45;72.43;;;32.17;;
39370;SDS011;25099;51.946;4.838;2023-02-22T04:22:13;76.35;;;31.40;;
39370;SDS011;25099;51.946;4.838;2023-02-22T04:24:48;71.95;;;29.08;;
39370;SDS011;25099;51.946;4.838;2023-02-22T04:27:17;59.78;;;29.52;;
39370;SDS011;25099;51.946;4.838;2023-02-22T04:29:48;93.55;;;30.45;;
39370;SDS011;25099;51.946;4.838;2023-02-22T04:32:16;74.63;;;29.48;;
39370;SDS011;25099;51.946;4.838;2023-02-22T04:34:42;84.60;;;31.65;;
39370;SDS011;25099;51.946;4.838;2023-02-22T04:37:13;74.85;;;32.92;;
39370;SDS011;25099;51.946;4.838;2023-02-22T04:42:14;70.32;;;29.25;;
39370;SDS011;25099;51.946;4.838;2023-02-22T04:47:20;64.45;;;30.98;;
39370;SDS011;25099;51.946;4.838;2023-02-22T04:49:52;75.00;;;30.27;;
39370;SDS011;25099;51.946;4.838;2023-02-22T04:52:23;74.53;;;30.13;;
39370;SDS011;25099;51.946;4.838;2023-02-22T04:54:53;95.70;;;30.52;;
39370;SDS011;25099;51.946;4.838;2023-02-22T04:57:18;90.65;;;31.85;;
39370;SDS011;25099;51.946;4.838;2023-02-22T04:59:44;86.68;;;30.65;;
39370;SDS011;25099;51.946;4.838;2023-02-22T05:02:10;68.93;;;29.63;;
39370;SDS011;25099;51.946;4.838;2023-02-22T05:04:42;62.60;;;28.92;;
39370;SDS011;25099;51.946;4.838;2023-02-22T05:07:11;62.83;;;28.98;;
39370;SDS011;25099;51.946;4.838;2023-02-22T05:09:43;72.18;;;28.95;;
39370;SDS011;25099;51.946;4.838;2023-02-22T05:12:11;81.72;;;29.25;;
39370;SDS011;25099;51.946;4.838;2023-02-22T05:14:43;82.95;;;29.38;;
39370;SDS011;25099;51.946;4.838;2023-02-22T05:17:15;91.60;;;27.98;;
39370;SDS011;25099;51.946;4.838;2023-02-22T05:19:43;58.50;;;26.02;;
39370;SDS011;25099;51.946;4.838;2023-02-22T05:22:15;61.22;;;27.38;;
39370;SDS011;25099;51.946;4.838;2023-02-22T05:24:44;68.72;;;25.70;;
39370;SDS011;25099;51.946;4.838;2023-02-22T05:27:09;73.18;;;27.00;;
39370;SDS011;25099;51.946;4.838;2023-02-22T05:29:40;58.40;;;26.77;;
39370;SDS011;25099;51.946;4.838;2023-02-22T05:32:12;66.78;;;27.42;;
39370;SDS011;25099;51.946;4.838;2023-02-22T05:34:44;67.38;;;28.77;;
39370;SDS011;25099;51.946;4.838;2023-02-22T05:37:19;80.88;;;28.13;;
39370;SDS011;25099;51.946;4.838;2023-02-22T05:39:47;60.78;;;25.55;;
39370;SDS011;25099;51.946;4.838;2023-02-22T05:42:21;60.20;;;27.05;;
39370;SDS011;25099;51.946;4.838;2023-02-22T05:44:50;58.55;;;27.83;;
39370;SDS011;25099;51.946;4.838;2023-02-22T05:47:16;80.68;;;27.00;;
39370;SDS011;25099;51.946;4.838;2023-02-22T05:49:44;55.25;;;27.67;;
39370;SDS011;25099;51.946;4.838;2023-02-22T05:52:13;59.20;;;27.08;;
39370;SDS011;25099;51.946;4.838;2023-02-22T05:54:41;44.88;;;23.83;;
39370;SDS011;25099;51.946;4.838;2023-02-22T05:57:10;46.55;;;23.48;;
39370;SDS011;25099;51.946;4.838;2023-02-22T05:59:44;49.63;;;23.80;;
39370;SDS011;25099;51.946;4.838;2023-02-22T06:02:10;55.30;;;26.23;;
39370;SDS011;25099;51.946;4.838;2023-02-22T06:04:44;52.15;;;23.13;;
39370;SDS011;25099;51.946;4.838;2023-02-22T06:09:47;52.75;;;25.42;;
39370;SDS011;25099;51.946;4.838;2023-02-22T06:14:46;45.95;;;23.50;;
39370;SDS011;25099;51.946;4.838;2023-02-22T06:17:13;43.90;;;21.80;;
39370;SDS011;25099;51.946;4.838;2023-02-22T06:19:45;45.75;;;24.88;;
39370;SDS011;25099;51.946;4.838;2023-02-22T06:22:17;46.83;;;23.90;;
39370;SDS011;25099;51.946;4.838;2023-02-22T06:24:46;52.75;;;25.55;;
39370;SDS011;25099;51.946;4.838;2023-02-22T06:27:18;57.05;;;25.08;;
39370;SDS011;25099;51.946;4.838;2023-02-22T06:29:53;57.85;;;25.25;;
39370;SDS011;25099;51.946;4.838;2023-02-22T06:32:27;54.35;;;23.60;;
39370;SDS011;25099;51.946;4.838;2023-02-22T06:34:56;46.30;;;24.00;;
39370;SDS011;25099;51.946;4.838;2023-02-22T06:37:24;47.30;;;23.00;;
39370;SDS011;25099;51.946;4.838;2023-02-22T06:39:56;44.28;;;24.05;;
39370;SDS011;25099;51.946;4.838;2023-02-22T06:42:27;41.90;;;22.30;;
39370;SDS011;25099;51.946;4.838;2023-02-22T06:45:01;50.83;;;23.33;;
39370;SDS011;25099;51.946;4.838;2023-02-22T06:47:40;45.40;;;23.15;;
39370;SDS011;25099;51.946;4.838;2023-02-22T06:50:06;51.25;;;23.98;;
39370;SDS011;25099;51.946;4.838;2023-02-22T06:52:40;47.47;;;25.10;;
39370;SDS011;25099;51.946;4.838;2023-02-22T06:55:06;51.70;;;25.35;;
39370;SDS011;25099;51.946;4.838;2023-02-22T06:57:34;49.78;;;25.10;;
39370;SDS011;25099;51.946;4.838;2023-02-22T07:00:13;53.03;;;25.50;;
39370;SDS011;25099;51.946;4.838;2023-02-22T07:05:12;43.80;;;23.13;;
39370;SDS011;25099;51.946;4.838;2023-02-22T07:07:42;45.83;;;23.80;;
39370;SDS011;25099;51.946;4.838;2023-02-22T07:10:13;48.97;;;23.83;;
39370;SDS011;25099;51.946;4.838;2023-02-22T07:12:48;53.15;;;26.00;;
39370;SDS011;25099;51.946;4.838;2023-02-22T07:15:18;46.53;;;24.40;;
39370;SDS011;25099;51.946;4.838;2023-02-22T07:17:48;48.17;;;23.80;;
39370;SDS011;25099;51.946;4.838;2023-02-22T07:20:14;50.63;;;24.83;;
39370;SDS011;25099;51.946;4.838;2023-02-22T07:23:04;45.10;;;24.27;;
39370;SDS011;25099;51.946;4.838;2023-02-22T07:25:33;52.47;;;25.40;;
39370;SDS011;25099;51.946;4.838;2023-02-22T07:28:04;47.50;;;25.70;;
39370;SDS011;25099;51.946;4.838;2023-02-22T07:30:36;47.25;;;24.95;;
39370;SDS011;25099;51.946;4.838;2023-02-22T07:33:06;48.08;;;26.05;;
39370;SDS011;25099;51.946;4.838;2023-02-22T07:35:43;51.85;;;25.00;;
39370;SDS011;25099;51.946;4.838;2023-02-22T07:38:11;49.25;;;25.10;;
39370;SDS011;25099;51.946;4.838;2023-02-22T07:40:37;51.42;;;25.67;;
39370;SDS011;25099;51.946;4.838;2023-02-22T07:43:14;46.15;;;24.48;;
39370;SDS011;25099;51.946;4.838;2023-02-22T07:45:41;46.33;;;24.50;;
39370;SDS011;25099;51.946;4.838;2023-02-22T07:48:07;49.17;;;24.27;;
39370;SDS011;25099;51.946;4.838;2023-02-22T07:50:39;45.60;;;23.65;;
39370;SDS011;25099;51.946;4.838;2023-02-22T07:53:16;46.35;;;24.10;;
39370;SDS011;25099;51.946;4.838;2023-02-22T07:55:43;50.08;;;26.02;;
39370;SDS011;25099;51.946;4.838;2023-02-22T07:58:12;45.90;;;25.45;;
39370;SDS011;25099;51.946;4.838;2023-02-22T08:00:42;49.25;;;25.23;;
39370;SDS011;25099;51.946;4.838;2023-02-22T08:03:22;53.53;;;25.90;;
39370;SDS011;25099;51.946;4.838;2023-02-22T08:08:22;48.38;;;24.33;;
39370;SDS011;25099;51.946;4.838;2023-02-22T08:11:00;45.90;;;23.75;;
39370;SDS011;25099;51.946;4.838;2023-02-22T08:13:29;44.95;;;23.08;;
39370;SDS011;25099;51.946;4.838;2023-02-22T08:15:54;49.58;;;24.58;;
39370;SDS011;25099;51.946;4.838;2023-02-22T08:18:27;48.95;;;26.30;;
39370;SDS011;25099;51.946;4.838;2023-02-22T08:20:55;51.83;;;26.38;;
39370;SDS011;25099;51.946;4.838;2023-02-22T08:23:27;48.70;;;26.77;;
39370;SDS011;25099;51.946;4.838;2023-02-22T08:25:53;49.92;;;24.80;;
39370;SDS011;25099;51.946;4.838;2023-02-22T08:28:25;52.92;;;28.35;;
39370;SDS011;25099;51.946;4.838;2023-02-22T08:30:53;59.28;;;28.83;;
39370;SDS011;25099;51.946;4.838;2023-02-22T08:33:25;59.95;;;30.25;;
39370;SDS011;25099;51.946;4.838;2023-02-22T08:36:00;52.45;;;28.05;;
39370;SDS011;25099;51.946;4.838;2023-02-22T08:38:29;59.45;;;29.85;;
39370;SDS011;25099;51.946;4.838;2023-02-22T08:40:56;55.65;;;28.27;;
39370;SDS011;25099;51.946;4.838;2023-02-22T08:43:25;54.17;;;28.17;;
39370;SDS011;25099;51.946;4.838;2023-02-22T08:45:58;53.50;;;26.73;;
39370;SDS011;25099;51.946;4.838;2023-02-22T08:48:24;45.63;;;25.25;;
39370;SDS011;25099;51.946;4.838;2023-02-22T08:50:50;50.47;;;27.20;;
39370;SDS011;25099;51.946;4.838;2023-02-22T08:53:21;47.80;;;26.95;;
39370;SDS011;25099;51.946;4.838;2023-02-22T08:55:53;50.90;;;26.73;;
39370;SDS011;25099;51.946;4.838;2023-02-22T08:58:19;44.58;;;24.98;;
39370;SDS011;25099;51.946;4.838;2023-02-22T09:00:53;48.63;;;25.70;;
39370;SDS011;25099;51.946;4.838;2023-02-22T09:03:31;48.88;;;26.65;;
39370;SDS011;25099;51.946;4.838;2023-02-22T09:05:57;46.65;;;25.83;;
39370;SDS011;25099;51.946;4.838;2023-02-22T09:08:33;44.13;;;24.58;;
39370;SDS011;25099;51.946;4.838;2023-02-22T09:11:05;45.28;;;25.65;;
39370;SDS011;25099;51.946;4.838;2023-02-22T09:13:31;44.75;;;24.20;;
39370;SDS011;25099;51.946;4.838;2023-02-22T09:15:56;38.63;;;22.73;;
39370;SDS011;25099;51.946;4.838;2023-02-22T09:20:58;44.75;;;23.05;;
39370;SDS011;25099;51.946;4.838;2023-02-22T09:43:33;42.20;;;23.38;;
39370;SDS011;25099;51.946;4.838;2023-02-22T09:52:29;39.58;;;22.75;;
39370;SDS011;25099;51.946;4.838;2023-02-22T09:55:04;37.72;;;23.67;;
39370;SDS011;25099;51.946;4.838;2023-02-22T09:57:55;39.28;;;23.13;;
39370;SDS011;25099;51.946;4.838;2023-02-22T10:00:45;41.67;;;24.10;;
39370;SDS011;25099;51.946;4.838;2023-02-22T10:09:15;44.10;;;25.63;;
39370;SDS011;25099;51.946;4.838;2023-02-22T10:20:52;35.25;;;20.95;;
39370;SDS011;25099;51.946;4.838;2023-02-22T10:44:32;35.00;;;21.77;;
39370;SDS011;25099;51.946;4.838;2023-02-22T10:49:36;36.30;;;21.42;;
39370;SDS011;25099;51.946;4.838;2023-02-22T10:52:29;34.35;;;21.27;;
39370;SDS011;25099;51.946;4.838;2023-02-22T10:54:58;36.33;;;21.48;;
39370;SDS011;25099;51.946;4.838;2023-02-22T11:11:45;35.55;;;21.02;;
39370;SDS011;25099;51.946;4.838;2023-02-22T11:20:43;33.05;;;21.40;;
39370;SDS011;25099;51.946;4.838;2023-02-22T11:26:13;37.88;;;21.10;;
39370;SDS011;25099;51.946;4.838;2023-02-22T11:28:46;40.75;;;20.50;;
39370;SDS011;25099;51.946;4.838;2023-02-22T11:31:19;36.97;;;20.73;;
39370;SDS011;25099;51.946;4.838;2023-02-22T11:33:58;37.47;;;22.27;;
39370;SDS011;25099;51.946;4.838;2023-02-22T11:42:26;32.70;;;22.23;;
39370;SDS011;25099;51.946;4.838;2023-02-22T11:48:42;39.67;;;20.88;;
39370;SDS011;25099;51.946;4.838;2023-02-22T11:57:54;33.47;;;20.80;;
39370;SDS011;25099;51.946;4.838;2023-02-22T12:01:04;31.65;;;20.20;;
39370;SDS011;25099;51.946;4.838;2023-02-22T12:15:38;34.13;;;19.75;;
39370;SDS011;25099;51.946;4.838;2023-02-22T12:20:45;31.70;;;20.27;;
39370;SDS011;25099;51.946;4.838;2023-02-22T12:23:21;33.88;;;20.27;;
39370;SDS011;25099;51.946;4.838;2023-02-22T12:26:02;28.90;;;19.58;;
39370;SDS011;25099;51.946;4.838;2023-02-22T12:31:33;33.75;;;20.52;;
39370;SDS011;25099;51.946;4.838;2023-02-22T12:37:03;29.95;;;19.83;;
39370;SDS011;25099;51.946;4.838;2023-02-22T12:40:05;30.58;;;19.17;;
39370;SDS011;25099;51.946;4.838;2023-02-22T12:45:38;25.23;;;19.25;;
39370;SDS011;25099;51.946;4.838;2023-02-22T12:51:54;28.65;;;19.05;;
39370;SDS011;25099;51.946;4.838;2023-02-22T13:00:00;26.63;;;18.45;;
39370;SDS011;25099;51.946;4.838;2023-02-22T14:08:37;32.72;;;22.00;;
39370;SDS011;25099;51.946;4.838;2023-02-22T14:38:15;38.95;;;23.40;;
39370;SDS011;25099;51.946;4.838;2023-02-22T14:48:51;35.90;;;24.45;;
39370;SDS011;25099;51.946;4.838;2023-02-22T14:51:23;36.50;;;24.30;;
39370;SDS011;25099;51.946;4.838;2023-02-22T14:54:23;34.60;;;23.98;;
39370;SDS011;25099;51.946;4.838;2023-02-22T15:00:03;33.65;;;24.20;;
39370;SDS011;25099;51.946;4.838;2023-02-22T15:03:26;37.00;;;24.95;;
39370;SDS011;25099;51.946;4.838;2023-02-22T15:06:21;40.20;;;25.30;;
39370;SDS011;25099;51.946;4.838;2023-02-22T15:09:03;37.83;;;25.77;;
39370;SDS011;25099;51.946;4.838;2023-02-22T15:11:53;43.45;;;26.10;;
39370;SDS011;25099;51.946;4.838;2023-02-22T15:15:00;39.67;;;26.33;;
39370;SDS011;25099;51.946;4.838;2023-02-22T15:17:54;42.88;;;25.90;;
39370;SDS011;25099;51.946;4.838;2023-02-22T15:20:20;35.63;;;25.52;;
39370;SDS011;25099;51.946;4.838;2023-02-22T15:22:58;42.50;;;26.73;;
39370;SDS011;25099;51.946;4.838;2023-02-22T15:25:24;43.65;;;27.50;;
39370;SDS011;25099;51.946;4.838;2023-02-22T15:27:52;41.60;;;28.35;;
39370;SDS011;25099;51.946;4.838;2023-02-22T15:30:26;44.95;;;27.80;;
39370;SDS011;25099;51.946;4.838;2023-02-22T15:32:54;44.45;;;28.55;;
39370;SDS011;25099;51.946;4.838;2023-02-22T15:35:29;43.05;;;27.75;;
39370;SDS011;25099;51.946;4.838;2023-02-22T15:40:35;46.90;;;30.27;;
39370;SDS011;25099;51.946;4.838;2023-02-22T15:43:20;49.05;;;31.02;;
39370;SDS011;25099;51.946;4.838;2023-02-22T15:46:22;47.05;;;31.85;;
39370;SDS011;25099;51.946;4.838;2023-02-22T15:49:18;51.08;;;34.35;;
39370;SDS011;25099;51.946;4.838;2023-02-22T15:51:44;54.92;;;35.90;;
39370;SDS011;25099;51.946;4.838;2023-02-22T15:54:15;52.33;;;36.35;;
39370;SDS011;25099;51.946;4.838;2023-02-22T15:56:46;54.63;;;36.63;;
39370;SDS011;25099;51.946;4.838;2023-02-22T15:59:19;53.10;;;35.58;;
39370;SDS011;25099;51.946;4.838;2023-02-22T16:01:47;53.65;;;37.30;;
39370;SDS011;25099;51.946;4.838;2023-02-22T16:04:19;51.53;;;35.97;;
39370;SDS011;25099;51.946;4.838;2023-02-22T16:06:47;59.25;;;38.70;;
39370;SDS011;25099;51.946;4.838;2023-02-22T16:09:19;57.63;;;38.63;;
39370;SDS011;25099;51.946;4.838;2023-02-22T16:11:50;59.83;;;40.17;;
39370;SDS011;25099;51.946;4.838;2023-02-22T16:14:43;58.83;;;40.25;;
39370;SDS011;25099;51.946;4.838;2023-02-22T16:22:55;72.93;;;43.58;;
39370;SDS011;25099;51.946;4.838;2023-02-22T16:27:58;79.38;;;48.30;;
39370;SDS011;25099;51.946;4.838;2023-02-22T16:30:39;80.43;;;51.63;;
39370;SDS011;25099;51.946;4.838;2023-02-22T16:33:08;95.50;;;52.72;;
39370;SDS011;25099;51.946;4.838;2023-02-22T16:35:40;89.18;;;52.10;;
39370;SDS011;25099;51.946;4.838;2023-02-22T16:38:15;96.80;;;54.17;;
39370;SDS011;25099;51.946;4.838;2023-02-22T16:40:48;97.03;;;55.60;;
39370;SDS011;25099;51.946;4.838;2023-02-22T16:43:18;104.32;;;57.38;;
39370;SDS011;25099;51.946;4.838;2023-02-22T16:45:46;108.00;;;59.70;;
39370;SDS011;25099;51.946;4.838;2023-02-22T16:48:19;116.00;;;59.80;;
39370;SDS011;25099;51.946;4.838;2023-02-22T16:50:50;117.28;;;61.35;;
39370;SDS011;25099;51.946;4.838;2023-02-22T16:53:24;114.38;;;62.22;;
39370;SDS011;25099;51.946;4.838;2023-02-22T16:56:00;123.75;;;61.42;;
39370;SDS011;25099;51.946;4.838;2023-02-22T16:58:33;113.28;;;61.55;;
39370;SDS011;25099;51.946;4.838;2023-02-22T17:01:02;108.60;;;59.28;;
39370;SDS011;25099;51.946;4.838;2023-02-22T17:03:33;115.20;;;62.38;;
39370;SDS011;25099;51.946;4.838;2023-02-22T17:06:02;115.15;;;61.42;;
39370;SDS011;25099;51.946;4.838;2023-02-22T17:08:31;117.32;;;62.17;;
39370;SDS011;25099;51.946;4.838;2023-02-22T17:11:09;118.47;;;62.72;;
39370;SDS011;25099;51.946;4.838;2023-02-22T17:13:40;114.40;;;62.05;;
39370;SDS011;25099;51.946;4.838;2023-02-22T17:16:14;110.25;;;58.78;;
39370;SDS011;25099;51.946;4.838;2023-02-22T17:18:40;116.18;;;60.58;;
39370;SDS011;25099;51.946;4.838;2023-02-22T17:21:09;115.93;;;61.20;;
39370;SDS011;25099;51.946;4.838;2023-02-22T17:23:41;118.03;;;61.47;;
39370;SDS011;25099;51.946;4.838;2023-02-22T17:26:13;110.13;;;59.92;;
39370;SDS011;25099;51.946;4.838;2023-02-22T17:28:42;119.97;;;64.40;;
39370;SDS011;25099;51.946;4.838;2023-02-22T17:31:16;114.18;;;59.92;;
39370;SDS011;25099;51.946;4.838;2023-02-22T17:33:44;105.03;;;58.85;;
39370;SDS011;25099;51.946;4.838;2023-02-22T17:36:16;113.75;;;61.03;;
39370;SDS011;25099;51.946;4.838;2023-02-22T17:41:22;113.35;;;60.40;;
39370;SDS011;25099;51.946;4.838;2023-02-22T18:02:27;117.03;;;57.53;;
39370;SDS011;25099;51.946;4.838;2023-02-22T18:15:15;105.57;;;53.72;;
39370;SDS011;25099;51.946;4.838;2023-02-22T18:18:11;107.68;;;51.90;;
39370;SDS011;25099;51.946;4.838;2023-02-22T18:20:42;106.93;;;52.88;;
39370;SDS011;25099;51.946;4.838;2023-02-22T18:33:26;92.72;;;47.92;;
39370;SDS011;25099;51.946;4.838;2023-02-22T21:47:39;109.63;;;55.25;;
39370;SDS011;25099;51.946;4.838;2023-02-22T21:57:43;106.60;;;54.80;;
39370;SDS011;25099;51.946;4.838;2023-02-22T22:31:20;111.35;;;55.45;;
39370;SDS011;25099;51.946;4.838;2023-02-22T22:33:47;108.13;;;53.42;;
